Time;durP1;ratioP1;P1;durP2;ratioP2;P2;SDS_P1;SDS_P2;PMS_P1;PMS_P2;Temp;Humidity;BMP_temperature;BMP_pressure;BME280_temperature;BME280_humidity;BME280_pressure;Samples;Min_cycle;Max_cycle;Signal;HPM_P1;HPM_P2
2022/05/24 00:00:26;;;;;;;;;3.00;3.00;;;;;18.28;58.36;99954.06;2055316;28;47503;-62
2022/05/24 00:01:27;;;;;;;;;3.00;3.00;;;;;18.27;58.73;99943.44;2059606;28;48276;-62
2022/05/24 00:02:27;;;;;;;;;3.00;2.00;;;;;18.27;58.62;99951.47;2061710;28;47751;-61
2022/05/24 00:03:27;;;;;;;;;2.00;2.00;;;;;18.26;58.81;99952.44;2062734;28;47680;-62
2022/05/24 00:04:28;;;;;;;;;2.00;2.00;;;;;18.25;58.79;99956.97;2060550;28;47740;-61
2022/05/24 00:05:31;;;;;;;;;2.00;2.00;;;;;18.24;58.85;99961.47;2098139;28;48397;-62
2022/05/24 00:06:32;;;;;;;;;1.50;1.50;;;;;18.23;58.75;99961.56;2095786;28;47974;-62
2022/05/24 00:07:33;;;;;;;;;3.33;3.33;;;;;18.22;58.57;99962.53;2059459;28;47887;-61
2022/05/24 00:08:34;;;;;;;;;2.00;2.00;;;;;18.22;58.64;99959.84;2059220;28;48124;-62
2022/05/24 00:09:34;;;;;;;;;4.00;2.00;;;;;18.20;58.68;99962.66;2057708;28;47650;-62
2022/05/24 00:10:36;;;;;;;;;2.33;1.00;;;;;18.18;58.66;99961.03;2057819;28;48048;-62
2022/05/24 00:11:36;;;;;;;;;2.00;2.00;;;;;18.15;58.64;99964.75;2060696;28;47546;-62
2022/05/24 00:12:38;;;;;;;;;2.00;2.00;;;;;18.14;58.71;99962.16;2057190;28;47440;-62
2022/05/24 00:13:38;;;;;;;;;3.25;3.25;;;;;18.11;58.64;99963.22;2058613;28;48371;-62
2022/05/24 00:15:58;;;;;;;;;2.00;2.00;;;;;18.08;59.13;99967.94;2053213;28;47453;-61
2022/05/24 00:16:58;;;;;;;;;2.00;2.00;;;;;18.06;58.90;99976.09;2057195;28;47371;-61
2022/05/24 00:18:00;;;;;;;;;1.67;1.00;;;;;18.05;59.05;99985.13;2060291;28;47927;-61
2022/05/24 00:19:01;;;;;;;;;3.00;3.00;;;;;18.03;58.95;99984.31;2060894;28;47935;-62
2022/05/24 00:20:03;;;;;;;;;2.00;1.00;;;;;18.01;59.05;99985.41;2061269;28;47368;-61
2022/05/24 00:21:05;;;;;;;;;1.50;1.50;;;;;18.00;58.86;99986.34;2061010;28;47602;-61
2022/05/24 00:22:05;;;;;;;;;1.50;1.50;;;;;17.97;58.87;99992.78;2053835;28;47762;-59
2022/05/24 00:23:06;;;;;;;;;2.00;2.00;;;;;17.96;58.79;100009.88;2059826;28;47763;-61
2022/05/24 00:24:07;;;;;;;;;2.33;2.33;;;;;17.95;58.99;100000.09;2054348;28;47681;-61
2022/05/24 00:25:08;;;;;;;;;2.67;1.33;;;;;17.92;58.63;99998.47;2056186;28;47370;-61
2022/05/24 00:26:15;;;;;;;;;1.00;1.00;;;;;17.91;58.84;100001.22;2061523;28;48061;-61
2022/05/24 00:27:16;;;;;;;;;3.00;3.00;;;;;17.90;58.69;99997.66;2059895;28;47438;-61
2022/05/24 00:28:16;;;;;;;;;2.00;2.00;;;;;17.89;58.95;100001.31;2061928;28;47651;-62
2022/05/24 00:29:17;;;;;;;;;2.50;2.50;;;;;17.90;59.09;100015.59;2059508;28;47784;-62
2022/05/24 00:30:18;;;;;;;;;1.00;1.00;;;;;17.89;58.71;100009.38;2067972;28;47892;-61
2022/05/24 00:31:19;;;;;;;;;3.00;3.00;;;;;17.88;58.58;100001.41;2069781;28;48060;-62
2022/05/24 00:32:19;;;;;;;;;3.33;3.33;;;;;17.88;58.60;99999.59;2068343;28;48105;-62
2022/05/24 00:33:23;;;;;;;;;2.00;2.00;;;;;17.87;58.60;99995.19;2060414;28;47658;-62
2022/05/24 00:34:23;;;;;;;;;1.00;0.00;;;;;17.85;58.70;99990.88;2056106;28;48284;-61
2022/05/24 00:35:24;;;;;;;;;1.00;0.67;;;;;17.84;58.51;99987.34;2064214;28;48065;-62
2022/05/24 00:36:25;;;;;;;;;3.00;1.50;;;;;17.84;58.24;99997.22;2061841;28;47963;-62
2022/05/24 00:37:27;;;;;;;;;2.00;2.00;;;;;17.82;58.55;99988.41;2078298;28;47859;-62
2022/05/24 00:38:36;;;;;;;;;2.00;2.00;;;;;17.83;58.33;99990.13;2061778;28;48044;-61
2022/05/24 00:39:36;;;;;;;;;1.00;1.00;;;;;17.83;58.08;99990.13;2057931;28;47902;-62
2022/05/24 00:40:46;;;;;;;;;2.00;1.00;;;;;17.83;57.97;99993.66;2062722;28;48106;-61
2022/05/24 00:42:00;;;;;;;;;0.50;0.25;;;;;17.83;58.19;99990.13;2068603;28;47739;-61
2022/05/24 00:43:05;;;;;;;;;2.00;1.00;;;;;17.83;58.03;99977.56;2062998;28;46221;-61
2022/05/24 00:44:20;;;;;;;;;2.50;2.50;;;;;17.84;58.20;99970.38;2056259;28;48126;-63
2022/05/24 00:45:31;;;;;;;;;2.00;1.25;;;;;17.83;57.96;99964.16;2073737;28;47812;-60
2022/05/24 00:47:01;;;;;;;;;1.50;1.50;;;;;17.83;57.74;99964.16;2058735;28;47541;-61
2022/05/24 00:48:06;;;;;;;;;3.00;3.00;;;;;17.84;57.45;99967.69;2074205;28;47845;-61
2022/05/24 00:49:37;;;;;;;;;1.75;1.75;;;;;17.82;57.47;99967.78;2062942;27;47719;-61
2022/05/24 00:50:42;;;;;;;;;3.50;2.25;;;;;17.80;57.31;99963.50;2065036;28;48253;-61
2022/05/24 00:51:51;;;;;;;;;3.00;1.75;;;;;17.79;57.49;99972.50;2078639;28;47792;-61
2022/05/24 00:53:02;;;;;;;;;2.00;2.00;;;;;17.77;57.38;99971.72;2072024;27;48048;-62
2022/05/24 00:54:03;;;;;;;;;2.75;2.00;;;;;17.76;57.18;99964.63;2059666;27;47800;-62
2022/05/24 00:55:04;;;;;;;;;2.00;1.00;;;;;17.76;57.20;99978.91;2057164;28;47849;-62
2022/05/24 00:56:10;;;;;;;;;1.25;1.25;;;;;17.75;57.65;99969.13;2061363;28;47800;-62
2022/05/24 00:57:25;;;;;;;;;1.25;1.00;;;;;17.75;57.47;99973.63;2055443;27;48131;-62
2022/05/24 00:58:37;;;;;;;;;1.25;1.25;;;;;17.74;57.45;99975.47;2080027;28;47493;-62
2022/05/24 00:59:54;;;;;;;;;2.75;2.75;;;;;17.73;57.39;99971.06;2064059;28;48269;-62
2022/05/24 01:00:58;;;;;;;;;5.25;2.00;;;;;17.73;57.34;99967.50;2063467;28;47648;-62
2022/05/24 01:01:59;;;;;;;;;0.25;0.25;;;;;17.71;57.14;99962.22;2059600;28;48041;-61
2022/05/24 01:03:00;;;;;;;;;2.50;1.00;;;;;17.71;56.98;99961.38;2061052;28;47510;-62
2022/05/24 01:04:01;;;;;;;;;2.00;0.33;;;;;17.68;57.24;99964.22;2051802;28;47125;-62
2022/05/24 01:05:08;;;;;;;;;1.25;1.25;;;;;17.67;57.18;99966.06;2068360;28;47458;-63
2022/05/24 01:06:08;;;;;;;;;1.00;1.00;;;;;17.65;57.10;99967.94;2062035;28;47619;-60
2022/05/24 01:07:09;;;;;;;;;1.00;1.00;;;;;17.64;57.26;99968.91;2057837;28;47954;-61
2022/05/24 01:08:12;;;;;;;;;3.00;1.00;;;;;17.63;57.24;99970.72;2069056;28;47593;-61
2022/05/24 01:09:23;;;;;;;;;2.00;1.00;;;;;17.63;57.04;99973.41;2059360;28;47717;-61
2022/05/24 01:10:29;;;;;;;;;0.50;0.50;;;;;17.63;57.52;99972.53;2060079;28;47554;-61
2022/05/24 01:11:34;;;;;;;;;1.00;1.00;;;;;17.62;57.15;99976.19;2061422;28;47826;-60
2022/05/24 01:12:44;;;;;;;;;1.00;1.00;;;;;17.62;56.98;99978.88;2060693;28;48164;-61
2022/05/24 01:13:45;;;;;;;;;1.00;1.00;;;;;17.62;57.10;99985.09;2073684;28;47434;-59
2022/05/24 01:14:47;;;;;;;;;1.50;1.50;;;;;17.61;56.68;99986.06;2066452;28;47772;-61
2022/05/24 01:15:48;;;;;;;;;2.75;2.75;;;;;17.61;56.75;99987.88;2057329;28;47666;-60
2022/05/24 01:16:49;;;;;;;;;3.00;2.00;;;;;17.60;56.69;99991.53;2061638;28;47775;-63
2022/05/24 01:17:53;;;;;;;;;1.50;1.50;;;;;17.57;57.07;99983.69;2094509;28;48137;-61
2022/05/24 01:18:53;;;;;;;;;3.50;3.50;;;;;17.56;57.12;99982.81;2095154;28;47263;-61
2022/05/24 01:19:54;;;;;;;;;1.67;1.67;;;;;17.56;57.07;99993.53;2065210;28;48025;-61
2022/05/24 01:21:00;;;;;;;;;1.00;1.00;;;;;17.55;56.93;99989.13;2062146;28;47468;-60
2022/05/24 01:22:29;;;;;;;;;0.00;0.00;;;;;17.54;56.81;99992.78;2070770;27;48190;-61
2022/05/24 01:23:59;;;;;;;;;1.00;1.00;;;;;17.51;56.80;99992.94;2032707;28;47882;-59
2022/05/24 01:25:14;;;;;;;;;2.00;2.00;;;;;17.51;57.05;99998.31;2046524;28;47631;-62
2022/05/24 01:26:37;;;;;;;;;1.00;1.00;;;;;17.50;57.04;99983.19;2043003;28;47593;-61
2022/05/24 01:27:37;;;;;;;;;2.00;1.50;;;;;17.48;56.64;99993.16;2047140;28;47738;-61
2022/05/24 01:28:40;;;;;;;;;1.67;1.67;;;;;17.47;56.91;99986.06;2046561;28;47540;-62
2022/05/24 01:29:40;;;;;;;;;3.00;2.00;;;;;17.46;56.95;99995.06;2048079;28;47713;-61
2022/05/24 01:30:41;;;;;;;;;0.00;0.00;;;;;17.47;56.87;100001.28;2046566;28;47496;-61
2022/05/24 01:37:01;;;;;;;;;0.75;0.75;;;;;17.44;56.86;100002.34;2049047;28;48277;-61
2022/05/24 01:38:03;;;;;;;;;1.00;1.00;;;;;17.45;56.78;100000.53;2047831;28;47931;-62
2022/05/24 01:39:07;;;;;;;;;2.00;2.00;;;;;17.46;56.79;99996.88;2049571;28;48001;-61
2022/05/24 01:40:08;;;;;;;;;0.75;0.75;;;;;17.46;57.03;99987.03;2046892;28;47644;-61
2022/05/24 01:41:13;;;;;;;;;1.67;0.67;;;;;17.47;57.00;99994.09;2047853;28;48148;-61
2022/05/24 01:42:16;;;;;;;;;0.25;0.25;;;;;17.48;56.67;99990.47;2046694;28;47794;-61
2022/05/24 01:43:19;;;;;;;;;0.75;0.75;;;;;17.48;56.52;100009.25;2047223;28;47525;-60
2022/05/24 01:44:38;;;;;;;;;1.75;0.75;;;;;17.47;56.31;99988.75;2047005;28;47466;-61
2022/05/24 01:45:48;;;;;;;;;1.25;1.25;;;;;17.45;56.58;99993.34;2050927;28;47878;-61
2022/05/24 01:46:49;;;;;;;;;2.25;1.25;;;;;17.44;56.42;99988.94;2046789;28;48072;-61
2022/05/24 01:47:57;;;;;;;;;1.33;1.00;;;;;17.43;56.73;99991.72;2047496;28;48093;-61
2022/05/24 01:49:07;;;;;;;;;0.00;0.00;;;;;17.41;56.51;99989.13;2047884;28;47004;-62
2022/05/24 01:50:11;;;;;;;;;1.00;1.00;;;;;17.40;56.62;99994.56;2047939;28;47505;-63
2022/05/24 01:51:15;;;;;;;;;0.00;0.00;;;;;17.39;56.43;99995.53;2047525;28;47815;-60
2022/05/24 01:52:24;;;;;;;;;0.00;0.00;;;;;17.36;56.62;99994.75;2046990;28;47748;-61
2022/05/24 01:53:36;;;;;;;;;0.25;0.25;;;;;17.35;56.47;100001.06;2045787;28;47771;-62
2022/05/24 01:54:41;;;;;;;;;0.00;0.00;;;;;17.33;56.23;99997.63;2046223;28;47346;-61
2022/05/24 01:55:49;;;;;;;;;0.00;0.00;;;;;17.33;56.33;100003.00;2047400;28;47850;-61
2022/05/24 01:57:02;;;;;;;;;1.75;1.25;;;;;17.32;56.57;100000.41;2047797;28;48001;-61
2022/05/24 01:58:07;;;;;;;;;2.00;2.00;;;;;17.29;56.51;100001.47;2046970;28;47750;-61
2022/05/24 01:59:09;;;;;;;;;0.25;0.25;;;;;17.27;56.46;100006.03;2049587;28;47809;-62
2022/05/24 02:00:14;;;;;;;;;0.75;0.75;;;;;17.27;56.58;100000.66;2047099;28;48447;-61
2022/05/24 02:01:31;;;;;;;;;1.50;1.00;;;;;17.27;56.54;100003.34;2056039;28;48339;-61
2022/05/24 02:02:32;;;;;;;;;1.00;1.00;;;;;17.27;56.66;100010.53;2061831;28;46142;-61
2022/05/24 02:03:32;;;;;;;;;0.33;0.33;;;;;17.25;56.23;100010.63;2086721;28;47353;-62
2022/05/24 02:04:34;;;;;;;;;1.00;1.00;;;;;17.24;56.44;100013.41;2095542;28;47738;-61
2022/05/24 02:05:38;;;;;;;;;1.00;1.00;;;;;17.22;56.54;100020.69;2060509;28;47744;-61
2022/05/24 02:06:39;;;;;;;;;0.75;0.75;;;;;17.20;56.31;100017.25;2064867;28;48258;-61
2022/05/24 02:07:39;;;;;;;;;0.00;0.00;;;;;17.20;56.68;100017.25;2061801;28;47557;-61
2022/05/24 02:08:40;;;;;;;;;3.00;1.67;;;;;17.18;56.85;100005.75;2067355;28;47151;-61
2022/05/24 02:09:48;;;;;;;;;0.33;0.33;;;;;17.17;56.72;100015.63;2078631;28;47563;-61
2022/05/24 02:10:52;;;;;;;;;0.75;0.75;;;;;17.16;56.47;100018.41;2065723;27;47867;-62
2022/05/24 02:11:52;;;;;;;;;1.00;1.00;;;;;17.15;56.74;100019.31;2060980;28;48208;-61
2022/05/24 02:12:58;;;;;;;;;2.00;2.00;;;;;17.14;56.82;100015.78;2061173;28;47735;-62
2022/05/24 02:14:16;;;;;;;;;0.75;0.25;;;;;17.14;56.67;100010.41;2063431;28;47761;-62
2022/05/24 02:15:24;;;;;;;;;0.00;0.00;;;;;17.12;56.52;100017.69;2059852;28;47847;-62
2022/05/24 02:16:29;;;;;;;;;1.50;1.00;;;;;17.10;56.38;100008.88;2061654;28;47761;-62
2022/05/24 02:17:39;;;;;;;;;1.00;1.00;;;;;17.08;56.73;100013.47;2061563;28;47722;-61
2022/05/24 02:18:43;;;;;;;;;1.00;1.00;;;;;17.08;56.63;100012.63;2085253;28;48245;-61
2022/05/24 02:19:50;;;;;;;;;1.00;1.00;;;;;17.06;56.47;100008.22;2062874;28;47744;-60
2022/05/24 02:20:50;;;;;;;;;1.00;1.00;;;;;17.06;56.61;100010.03;2063383;27;47904;-60
2022/05/24 02:21:57;;;;;;;;;0.00;0.00;;;;;17.06;56.97;100010.03;2072193;28;47768;-61
2022/05/24 02:22:57;;;;;;;;;0.75;0.75;;;;;17.04;56.75;100007.44;2096534;28;47306;-63
2022/05/24 02:23:58;;;;;;;;;1.00;0.67;;;;;17.03;56.75;100007.53;2085696;28;47805;-61
2022/05/24 02:25:17;;;;;;;;;3.00;1.33;;;;;17.01;57.20;100012.97;2061333;28;47794;-61
2022/05/24 02:26:21;;;;;;;;;1.00;1.00;;;;;17.01;56.97;100015.66;2076768;28;47563;-61
2022/05/24 02:27:22;;;;;;;;;1.00;1.00;;;;;17.01;56.78;100014.78;2060300;28;48177;-61
2022/05/24 02:28:26;;;;;;;;;1.00;1.00;;;;;16.98;56.64;100023.88;2088113;27;47796;-61
2022/05/24 02:29:26;;;;;;;;;0.25;0.00;;;;;16.96;56.90;100015.06;2065357;28;47534;-61
2022/05/24 02:30:29;;;;;;;;;0.00;0.00;;;;;16.95;57.01;100020.53;2064561;27;47936;-62
2022/05/24 02:31:29;;;;;;;;;1.00;1.00;;;;;16.94;57.01;100013.44;2065530;27;47636;-62
2022/05/24 02:32:30;;;;;;;;;0.67;0.67;;;;;16.94;56.74;100008.06;2064228;28;47712;-62
2022/05/24 02:33:35;;;;;;;;;0.25;0.25;;;;;16.95;57.16;100012.47;2064917;28;47828;-62
2022/05/24 02:34:35;;;;;;;;;0.00;0.00;;;;;16.95;56.98;100012.47;2077018;28;48156;-61
2022/05/24 02:35:36;;;;;;;;;1.00;0.67;;;;;16.94;56.82;100008.94;2055904;28;47707;-61
2022/05/24 02:36:36;;;;;;;;;0.33;0.33;;;;;16.95;56.79;100013.34;2055441;28;48085;-61
2022/05/24 02:37:37;;;;;;;;;0.00;0.00;;;;;16.96;56.69;100008.84;2060378;28;47548;-61
2022/05/24 02:38:38;;;;;;;;;0.00;0.00;;;;;16.96;56.60;100017.75;2058331;28;48029;-60
2022/05/24 02:42:16;;;;;;;;;0.25;0.00;;;;;16.97;56.94;100021.28;2062472;28;48327;-61
2022/05/24 02:43:16;;;;;;;;;0.67;0.67;;;;;16.97;56.80;100024.81;2059557;28;47507;-61
2022/05/24 02:44:17;;;;;;;;;0.00;0.00;;;;;16.98;57.11;100020.34;2062083;28;47677;-61
2022/05/24 02:45:17;;;;;;;;;1.00;1.00;;;;;17.00;57.13;100026.47;2058714;28;47703;-61
2022/05/24 02:46:19;;;;;;;;;0.00;0.00;;;;;16.99;57.21;100014.00;2062385;28;47720;-62
2022/05/24 02:47:19;;;;;;;;;0.25;0.25;;;;;16.99;57.01;100017.56;2060716;28;48317;-62
2022/05/24 02:48:20;;;;;;;;;1.33;0.00;;;;;17.01;57.37;100017.47;2066697;28;47743;-61
2022/05/24 02:49:21;;;;;;;;;0.00;0.00;;;;;17.01;57.21;100025.50;2060351;28;47970;-62
2022/05/24 02:50:21;;;;;;;;;1.00;1.00;;;;;17.01;57.10;100022.81;2062605;28;47625;-61
2022/05/24 02:51:23;;;;;;;;;0.33;0.33;;;;;17.00;56.85;100016.59;2056678;28;47555;-61
2022/05/24 02:52:23;;;;;;;;;0.00;0.00;;;;;17.01;56.72;100017.47;2055607;28;47926;-61
2022/05/24 02:53:25;;;;;;;;;0.00;0.00;;;;;17.02;57.08;100021.88;2060851;28;47902;-60
2022/05/24 02:54:25;;;;;;;;;0.25;0.25;;;;;17.02;57.13;100020.09;2062454;28;47502;-61
2022/05/24 02:55:26;;;;;;;;;1.00;1.00;;;;;17.03;57.28;100026.31;2060231;28;47888;-61
2022/05/24 02:56:27;;;;;;;;;2.00;2.00;;;;;17.04;57.01;100028.03;2062338;28;47724;-62
2022/05/24 02:57:27;;;;;;;;;0.00;0.00;;;;;17.05;57.26;100038.66;2060194;28;47271;-61
2022/05/24 02:58:28;;;;;;;;;1.00;1.00;;;;;17.04;57.10;100031.56;2062200;28;47537;-60
2022/05/24 02:59:28;;;;;;;;;0.33;0.33;;;;;17.04;56.82;100028.88;2056170;28;47994;-62
2022/05/24 03:00:29;;;;;;;;;0.67;0.00;;;;;17.04;56.84;100036.94;2056566;28;47437;-61
2022/05/24 03:01:30;;;;;;;;;2.25;1.00;;;;;17.02;56.77;100033.47;2054997;28;47605;-62
2022/05/24 03:02:30;;;;;;;;;0.67;0.67;;;;;17.01;56.91;100033.53;2056863;28;47723;-61
2022/05/24 03:03:30;;;;;;;;;0.67;0.67;;;;;17.01;57.04;100036.22;2060571;27;48157;-61
2022/05/24 03:04:32;;;;;;;;;1.67;1.67;;;;;17.00;56.96;100038.03;2059873;28;47742;-61
2022/05/24 03:05:33;;;;;;;;;0.50;0.50;;;;;16.99;57.11;100040.81;2057632;28;48252;-61
2022/05/24 03:09:33;;;;;;;;;4.00;1.00;;;;;16.97;57.02;100035.56;2063592;28;47633;-61
2022/05/24 03:10:33;;;;;;;;;1.25;1.25;;;;;16.96;56.97;100041.88;2056647;28;47408;-61
2022/05/24 03:14:15;;;;;;;;;1.75;1.00;;;;;16.94;56.75;100046.47;2093942;28;47686;-62
2022/05/24 03:15:16;;;;;;;;;2.00;1.75;;;;;16.93;57.05;100044.75;2066265;27;47689;-62
2022/05/24 03:16:16;;;;;;;;;3.33;3.33;;;;;16.93;56.86;100050.09;2059450;28;47323;-61
2022/05/24 03:17:17;;;;;;;;;1.00;1.00;;;;;16.92;56.86;100051.06;2061379;28;47373;-62
2022/05/24 03:18:20;;;;;;;;;1.00;1.00;;;;;16.90;57.08;100052.97;2054917;28;47188;-62
2022/05/24 03:19:22;;;;;;;;;1.50;0.75;;;;;16.88;56.95;100052.16;2067939;27;47647;-62
2022/05/24 03:20:23;;;;;;;;;0.00;0.00;;;;;16.87;57.07;100053.13;2068034;28;47948;-61
2022/05/24 03:21:23;;;;;;;;;0.00;0.00;;;;;16.86;56.84;100051.41;2060082;28;47589;-61
2022/05/24 03:22:23;;;;;;;;;1.67;1.67;;;;;16.85;57.21;100056.84;2088313;28;47310;-61
2022/05/24 03:23:24;;;;;;;;;1.67;0.00;;;;;16.82;56.63;100052.53;2061844;28;48108;-61
2022/05/24 03:24:24;;;;;;;;;0.67;0.67;;;;;16.79;57.20;100052.72;2062791;28;47787;-61
2022/05/24 03:25:25;;;;;;;;;0.00;0.00;;;;;16.78;57.07;100053.69;2097721;28;47528;-61
2022/05/24 03:26:25;;;;;;;;;0.00;0.00;;;;;16.75;57.29;100061.88;2095756;28;47353;-61
2022/05/24 03:27:26;;;;;;;;;1.00;0.67;;;;;16.75;57.46;100053.81;2085153;28;47341;-61
2022/05/24 03:28:26;;;;;;;;;2.00;0.00;;;;;16.74;57.35;100055.66;2084848;28;48166;-63
2022/05/24 03:29:27;;;;;;;;;0.00;0.00;;;;;16.75;56.97;100067.22;2057163;28;45681;-62
2022/05/24 03:30:27;;;;;;;;;2.00;0.00;;;;;16.75;57.28;100062.72;2068298;28;47763;-62
2022/05/24 03:31:28;;;;;;;;;0.00;0.00;;;;;16.75;57.16;100067.22;2059086;28;47593;-63
2022/05/24 03:32:28;;;;;;;;;1.67;1.33;;;;;16.75;57.43;100067.22;2068853;28;47487;-61
2022/05/24 03:33:29;;;;;;;;;0.33;0.33;;;;;16.73;57.21;100061.97;2061959;28;47300;-63
2022/05/24 03:34:29;;;;;;;;;0.00;0.00;;;;;16.73;57.20;100078.03;2090645;28;47538;-61
2022/05/24 03:35:30;;;;;;;;;1.33;0.33;;;;;16.73;57.37;100077.16;2059330;28;47726;-62
2022/05/24 03:36:30;;;;;;;;;0.00;0.00;;;;;16.72;57.32;100073.63;2058828;28;48160;-61
2022/05/24 03:37:30;;;;;;;;;0.00;0.00;;;;;16.68;56.99;100069.41;2068900;28;47911;-62
2022/05/24 03:38:31;;;;;;;;;1.00;1.00;;;;;16.67;56.96;100070.38;2061156;28;47292;-61
2022/05/24 03:39:32;;;;;;;;;0.00;0.00;;;;;16.68;57.38;100071.22;2058857;28;47291;-61
2022/05/24 03:40:33;;;;;;;;;1.00;1.00;;;;;16.67;57.43;100086.44;2062814;28;47929;-61
2022/05/24 03:41:35;;;;;;;;;1.00;1.00;;;;;16.66;56.89;100073.97;2061159;28;48062;-61
2022/05/24 03:42:37;;;;;;;;;0.00;0.00;;;;;16.65;57.10;100069.56;2089628;27;48146;-61
2022/05/24 03:43:37;;;;;;;;;0.00;0.00;;;;;16.64;57.07;100066.94;2058547;28;47390;-61
2022/05/24 03:44:38;;;;;;;;;0.00;0.00;;;;;16.62;57.08;100071.53;2058149;28;47994;-62
2022/05/24 03:45:38;;;;;;;;;0.00;0.00;;;;;16.61;57.29;100069.78;2075180;28;47822;-62
2022/05/24 03:46:40;;;;;;;;;1.00;0.00;;;;;16.61;56.90;100062.63;2067708;28;47794;-61
2022/05/24 03:47:40;;;;;;;;;2.00;0.00;;;;;16.60;56.84;100070.75;2062622;28;47311;-62
2022/05/24 03:48:40;;;;;;;;;1.00;1.00;;;;;16.58;57.05;100072.66;2082814;27;47424;-61
2022/05/24 03:49:41;;;;;;;;;0.33;0.33;;;;;16.57;56.88;100071.78;2065956;28;47956;-61
2022/05/24 03:50:42;;;;;;;;;0.00;0.00;;;;;16.55;57.51;100071.03;2079808;27;47693;-61
2022/05/24 03:51:42;;;;;;;;;1.00;1.00;;;;;16.56;57.23;100074.56;2061700;28;47691;-62
2022/05/24 03:52:43;;;;;;;;;1.00;0.00;;;;;16.55;57.01;100084.41;2055134;28;47352;-63
2022/05/24 03:53:43;;;;;;;;;0.33;0.00;;;;;16.54;56.83;100082.69;2066516;28;46997;-62
2022/05/24 03:54:44;;;;;;;;;0.00;0.00;;;;;16.53;56.98;100080.09;2063116;27;47432;-62
2022/05/24 03:55:44;;;;;;;;;0.00;0.00;;;;;16.52;57.30;100091.78;2061951;28;47483;-62
2022/05/24 03:58:04;;;;;;;;;0.00;0.00;;;;;16.49;57.48;100099.00;2074851;28;47972;-62
2022/05/24 03:59:04;;;;;;;;;0.00;0.00;;;;;16.49;57.26;100104.34;2060300;27;47666;-62
2022/05/24 04:00:06;;;;;;;;;0.33;0.33;;;;;16.49;57.16;100106.19;2095827;28;48178;-63
2022/05/24 04:01:06;;;;;;;;;1.00;0.00;;;;;16.48;57.42;100094.59;2093194;28;48508;-61
2022/05/24 04:02:07;;;;;;;;;0.00;0.00;;;;;16.47;57.08;100108.06;2094542;28;47530;-62
2022/05/24 04:03:08;;;;;;;;;0.00;0.00;;;;;16.48;57.24;100104.44;2055688;28;47330;-62
2022/05/24 04:04:09;;;;;;;;;0.75;0.50;;;;;16.48;56.95;100101.78;2070172;28;47839;-62
2022/05/24 04:05:10;;;;;;;;;0.00;0.00;;;;;16.49;57.15;100106.19;2060284;27;47518;-62
2022/05/24 04:06:10;;;;;;;;;0.00;0.00;;;;;16.49;57.66;100106.19;2078625;28;47706;-61
2022/05/24 04:07:11;;;;;;;;;0.67;0.67;;;;;16.50;57.66;100113.25;2056890;27;47259;-62
2022/05/24 04:08:11;;;;;;;;;0.00;0.00;;;;;16.49;57.11;100106.19;2068295;28;48174;-62
2022/05/24 04:09:12;;;;;;;;;1.00;1.00;;;;;16.47;57.40;100111.63;2068152;28;48273;-62
2022/05/24 04:10:15;;;;;;;;;1.67;1.67;;;;;16.45;57.29;100108.16;2060946;28;47266;-62
2022/05/24 04:11:15;;;;;;;;;0.00;0.00;;;;;16.46;57.24;100117.06;2057668;28;48274;-62
2022/05/24 04:12:16;;;;;;;;;0.00;0.00;;;;;16.45;57.48;100112.66;2068372;27;47366;-61
2022/05/24 04:13:16;;;;;;;;;1.00;0.00;;;;;16.44;57.41;100116.28;2068101;28;47651;-62
2022/05/24 04:14:17;;;;;;;;;1.00;0.00;;;;;16.45;57.66;100112.66;2066045;28;46645;-64
2022/05/24 04:15:18;;;;;;;;;0.00;0.00;;;;;16.45;57.04;100112.66;2060907;28;47843;-61
2022/05/24 04:16:18;;;;;;;;;0.00;0.00;;;;;16.44;57.22;100117.16;2066596;28;47372;-62
2022/05/24 04:17:20;;;;;;;;;0.00;0.00;;;;;16.44;56.98;100116.28;2065652;27;47827;-60
2022/05/24 04:18:20;;;;;;;;;0.00;0.00;;;;;16.45;57.06;100126.06;2083457;28;47850;-62
2022/05/24 04:19:21;;;;;;;;;0.00;0.00;;;;;16.44;57.28;100125.19;2058412;28;47356;-62
2022/05/24 04:20:24;;;;;;;;;0.00;0.00;;;;;16.44;57.46;100124.31;2070169;27;47947;-62
2022/05/24 04:21:25;;;;;;;;;0.25;0.00;;;;;16.42;57.48;100119.06;2069986;28;47683;-63
2022/05/24 04:22:25;;;;;;;;;0.00;0.00;;;;;16.41;56.94;100120.00;2069996;28;48176;-62
2022/05/24 04:23:26;;;;;;;;;0.33;0.33;;;;;16.41;57.19;100124.50;2062216;28;47270;-62
2022/05/24 04:24:26;;;;;;;;;0.00;0.00;;;;;16.40;57.05;100122.78;2058203;28;47472;-62
2022/05/24 04:25:27;;;;;;;;;1.00;1.00;;;;;16.39;56.96;100119.22;2059989;28;47607;-62
2022/05/24 04:26:27;;;;;;;;;0.00;0.00;;;;;16.39;56.96;100110.34;2067247;28;47447;-62
2022/05/24 04:27:27;;;;;;;;;0.00;0.00;;;;;16.38;57.28;100116.63;2066527;28;48141;-62
2022/05/24 04:28:28;;;;;;;;;0.33;0.00;;;;;16.37;57.36;100120.25;2072731;27;47408;-62
2022/05/24 04:29:28;;;;;;;;;0.00;0.00;;;;;16.35;57.22;100120.31;2061698;28;47893;-62
2022/05/24 04:30:29;;;;;;;;;2.00;0.67;;;;;16.35;56.95;100122.16;2064711;28;47681;-62
2022/05/24 04:31:29;;;;;;;;;2.00;0.00;;;;;16.34;57.00;100117.75;2058371;27;48019;-62
2022/05/24 04:32:30;;;;;;;;;0.00;0.00;;;;;16.33;57.02;100116.88;2056447;28;47329;-62
2022/05/24 04:33:30;;;;;;;;;1.00;0.00;;;;;16.32;57.44;100114.28;2061926;28;48365;-63
2022/05/24 04:34:30;;;;;;;;;0.00;0.00;;;;;16.31;57.60;100121.47;2078754;28;48187;-62
2022/05/24 04:35:31;;;;;;;;;1.33;0.00;;;;;16.30;57.28;100119.72;2067303;28;47778;-62
2022/05/24 04:36:32;;;;;;;;;0.00;0.00;;;;;16.29;56.92;100125.19;2056296;28;47397;-62
2022/05/24 04:37:32;;;;;;;;;0.00;0.00;;;;;16.28;57.53;100129.66;2060188;28;47433;-62
2022/05/24 04:38:33;;;;;;;;;0.00;0.00;;;;;16.28;57.04;100136.84;2059752;28;47394;-62
2022/05/24 04:39:34;;;;;;;;;0.00;0.00;;;;;16.28;57.22;100136.84;2057250;28;47998;-62
2022/05/24 04:43:12;;;;;;;;;0.00;0.00;;;;;16.25;56.93;100137.84;2061374;28;47762;-62
2022/05/24 04:44:13;;;;;;;;;2.00;2.00;;;;;16.25;57.26;100139.66;2060671;28;47651;-62
2022/05/24 04:45:15;;;;;;;;;0.33;0.33;;;;;16.25;57.27;100147.69;2057841;28;47421;-62
2022/05/24 04:46:15;;;;;;;;;0.75;0.75;;;;;16.24;57.35;100151.31;2061768;28;47819;-63
2022/05/24 04:47:17;;;;;;;;;0.33;0.33;;;;;16.24;57.25;100152.19;2059844;28;47854;-63
2022/05/24 04:48:17;;;;;;;;;0.25;0.25;;;;;16.24;57.24;100146.81;2083412;28;47978;-62
2022/05/24 04:49:19;;;;;;;;;1.67;1.00;;;;;16.23;57.25;100145.09;2062813;28;47110;-61
2022/05/24 04:50:20;;;;;;;;;0.25;0.25;;;;;16.22;57.30;100145.19;2055089;28;47551;-59
2022/05/24 04:51:20;;;;;;;;;1.00;1.00;;;;;16.22;57.03;100151.41;2058307;28;48152;-61
2022/05/24 04:52:24;;;;;;;;;2.00;1.00;;;;;16.22;57.16;100148.72;2060765;28;47343;-61
2022/05/24 04:53:26;;;;;;;;;1.00;1.00;;;;;16.23;57.21;100157.63;2060404;28;47582;-63
2022/05/24 04:54:27;;;;;;;;;0.00;0.00;;;;;16.21;57.02;100152.34;2062902;28;47255;-62
2022/05/24 04:55:28;;;;;;;;;0.00;0.00;;;;;16.21;57.46;100157.72;2061316;28;47396;-62
2022/05/24 04:56:28;;;;;;;;;0.00;0.00;;;;;16.22;57.07;100155.88;2104379;28;47620;-62
2022/05/24 04:57:29;;;;;;;;;0.00;0.00;;;;;16.23;56.99;100160.28;2103923;28;48019;-62
2022/05/24 04:58:29;;;;;;;;;0.00;0.00;;;;;16.23;56.86;100157.63;2057422;28;47501;-62
2022/05/24 04:59:30;;;;;;;;;0.00;0.00;;;;;16.24;56.96;100162.03;2060982;28;47374;-62
2022/05/24 05:00:30;;;;;;;;;0.00;0.00;;;;;16.24;57.39;100164.69;2059173;28;48021;-62
2022/05/24 05:01:30;;;;;;;;;0.00;0.00;;;;;16.24;56.89;100162.88;2058233;28;47230;-62
2022/05/24 05:02:31;;;;;;;;;0.00;0.00;;;;;16.25;56.94;100161.94;2060642;28;47207;-62
2022/05/24 05:03:31;;;;;;;;;0.00;0.00;;;;;16.26;57.46;100169.06;2102215;28;46859;-62
2022/05/24 05:04:33;;;;;;;;;0.00;0.00;;;;;16.27;57.13;100167.22;2103644;28;48085;-61
2022/05/24 05:05:33;;;;;;;;;0.25;0.25;;;;;16.28;56.80;100166.28;2059381;28;46597;-62
2022/05/24 05:06:33;;;;;;;;;0.00;0.00;;;;;16.29;57.25;100168.00;2098023;28;47554;-63
2022/05/24 05:07:34;;;;;;;;;1.33;1.33;;;;;16.28;56.77;100172.50;2099211;28;48156;-62
2022/05/24 05:08:34;;;;;;;;;0.00;0.00;;;;;16.28;57.26;100183.22;2057588;28;47639;-62
2022/05/24 05:09:35;;;;;;;;;0.67;0.67;;;;;16.31;57.29;100174.16;2055163;28;47344;-63
2022/05/24 05:10:37;;;;;;;;;0.00;0.00;;;;;16.29;57.11;100174.22;2060790;28;48124;-63
2022/05/24 05:11:38;;;;;;;;;0.00;0.00;;;;;16.29;57.37;100187.63;2101413;28;47340;-63